Time,TemperatureF,DewpointF,PressureIn,WindDirection,WindDirectionDegrees,WindSpeedMPH,WindSpeedGustMPH,Humidity,HourlyPrecipIn,Conditions,Clouds,dailyrainin,SoftwareType,DateUTC
2013-01-02 00:32:00,-2.0,-5.0,-100.00,North,-999,-999.0,-999.0,85,-99.99,,,-99.99,,2013-01-02 07:32:00,
2013-01-02 01:32:00,-1.0,-4.0,-100.00,North,-999,-999.0,-999.0,84,-99.99,,,-99.99,,2013-01-02 08:32:00,
2013-01-02 02:32:00,-1.0,-3.0,-100.00,North,-999,-999.0,-999.0,87,-99.99,,,-99.99,,2013-01-02 09:32:00,
2013-01-02 03:32:00,-1.0,-4.0,-100.00,North,-999,-999.0,-999.0,85,-99.99,,,-99.99,,2013-01-02 10:32:00,
2013-01-02 05:33:00,-2.0,-5.0,-100.00,North,-999,-999.0,-999.0,86,-99.99,,,-99.99,,2013-01-02 12:33:00,
2013-01-02 06:33:00,-3.0,-6.0,-100.00,North,-999,-999.0,-999.0,84,-99.99,,,-99.99,,2013-01-02 13:33:00,
2013-01-02 07:33:00,-3.0,-7.0,-100.00,North,-999,-999.0,-999.0,83,-99.99,,,-99.99,,2013-01-02 14:33:00,
2013-01-02 08:33:00,-1.0,-4.0,-100.00,North,-999,-999.0,-999.0,87,-99.99,,,-99.99,,2013-01-02 15:33:00,
2013-01-02 09:33:00,0.0,-3.0,-100.00,North,-999,-999.0,-999.0,88,-99.99,,,-99.99,,2013-01-02 16:33:00,
2013-01-02 10:00:00,7.0,2.0,-100.00,North,-999,-999.0,-999.0,79,-99.99,,,-99.99,,2013-01-02 17:00:00,
2013-01-02 10:33:00,7.0,2.0,-100.00,North,-999,-999.0,-999.0,79,-99.99,,,-99.99,,2013-01-02 17:33:00,
2013-01-02 10:43:00,7.0,2.0,-100.00,North,-999,-999.0,-999.0,79,-99.99,,,-99.99,,2013-01-02 17:43:00,
2013-01-02 10:53:00,7.0,2.0,-100.00,North,-999,-999.0,-999.0,79,-99.99,,,-99.99,,2013-01-02 17:53:00,
2013-01-02 11:00:00,22.0,9.0,-100.00,North,-999,-999.0,-999.0,56,-99.99,,,-99.99,,2013-01-02 18:00:00,
2013-01-02 11:33:00,22.0,9.0,-100.00,North,-999,-999.0,-999.0,56,-99.99,,,-99.99,,2013-01-02 18:33:00,
2013-01-02 11:43:00,22.0,9.0,-100.00,North,-999,-999.0,-999.0,56,-99.99,,,-99.99,,2013-01-02 18:43:00,
2013-01-02 11:53:00,22.0,9.0,-100.00,North,-999,-999.0,-999.0,56,-99.99,,,-99.99,,2013-01-02 18:53:00,
2013-01-02 12:00:00,25.0,7.0,-100.00,North,-999,-999.0,-999.0,45,-99.99,,,-99.99,,2013-01-02 19:00:00,
2013-01-02 12:33:00,25.0,7.0,-100.00,North,-999,-999.0,-999.0,45,-99.99,,,-99.99,,2013-01-02 19:33:00,
2013-01-02 12:43:00,25.0,7.0,-100.00,North,-999,-999.0,-999.0,45,-99.99,,,-99.99,,2013-01-02 19:43:00,
2013-01-02 12:52:00,25.0,7.0,-100.00,North,-999,-999.0,-999.0,45,-99.99,,,-99.99,,2013-01-02 19:52:00,
2013-01-02 13:00:00,28.0,-1.0,-100.00,North,-999,-999.0,-999.0,28,-99.99,,,-99.99,,2013-01-02 20:00:00,
2013-01-02 13:33:00,28.0,-1.0,-100.00,North,-999,-999.0,-999.0,28,-99.99,,,-99.99,,2013-01-02 20:33:00,
2013-01-02 13:42:00,28.0,-1.0,-100.00,North,-999,-999.0,-999.0,28,-99.99,,,-99.99,,2013-01-02 20:42:00,
2013-01-02 13:53:00,28.0,-1.0,-100.00,North,-999,-999.0,-999.0,28,-99.99,,,-99.99,,2013-01-02 20:53:00,
2013-01-02 14:00:00,28.0,-4.0,-100.00,North,-999,-999.0,-999.0,23,-99.99,,,-99.99,,2013-01-02 21:00:00,
2013-01-02 14:33:00,28.0,-4.0,-100.00,North,-999,-999.0,-999.0,23,-99.99,,,-99.99,,2013-01-02 21:33:00,
2013-01-02 14:43:00,28.0,-4.0,-100.00,North,-999,-999.0,-999.0,23,-99.99,,,-99.99,,2013-01-02 21:43:00,
2013-01-02 14:53:00,28.0,-4.0,-100.00,North,-999,-999.0,-999.0,23,-99.99,,,-99.99,,2013-01-02 21:53:00,
2013-01-02 15:32:00,25.0,-12.0,-100.00,North,-999,-999.0,-999.0,18,-99.99,,,-99.99,,2013-01-02 22:32:00,
2013-01-02 15:43:00,25.0,-12.0,-100.00,North,-999,-999.0,-999.0,18,-99.99,,,-99.99,,2013-01-02 22:43:00,
2013-01-02 15:52:00,25.0,-12.0,-100.00,North,-999,-999.0,-999.0,18,-99.99,,,-99.99,,2013-01-02 22:52:00,
2013-01-02 16:00:00,14.0,3.0,-100.00,North,-999,-999.0,-999.0,60,-99.99,,,-99.99,,2013-01-02 23:00:00,
2013-01-02 16:33:00,14.0,3.0,-100.00,North,-999,-999.0,-999.0,60,-99.99,,,-99.99,,2013-01-02 23:33:00,
2013-01-02 16:43:00,14.0,3.0,-100.00,North,-999,-999.0,-999.0,60,-99.99,,,-99.99,,2013-01-02 23:43:00,
2013-01-02 16:53:00,14.0,3.0,-100.00,North,-999,-999.0,-999.0,60,-99.99,,,-99.99,,2013-01-02 23:53:00,
2013-01-02 17:38:00,7.0,3.0,-100.00,North,-999,-999.0,-999.0,82,-99.99,,,-99.99,,2013-01-03 00:38:00,
2013-01-02 18:33:00,6.0,0.0,-100.00,North,-999,-999.0,-999.0,78,-99.99,,,-99.99,,2013-01-03 01:33:00,
2013-01-02 19:33:00,3.0,-1.0,-100.00,North,-999,-999.0,-999.0,82,-99.99,,,-99.99,,2013-01-03 02:33:00,
2013-01-02 19:43:00,3.0,-1.0,-100.00,North,-999,-999.0,-999.0,82,-99.99,,,-99.99,,2013-01-03 02:43:00,
2013-01-02 19:52:00,3.0,-1.0,-100.00,North,-999,-999.0,-999.0,82,-99.99,,,-99.99,,2013-01-03 02:52:00,
2013-01-02 20:47:00,1.0,-4.0,-100.00,North,-999,-999.0,-999.0,81,-99.99,,,-99.99,,2013-01-03 03:47:00,
2013-01-02 21:32:00,0.0,-4.0,-100.00,North,-999,-999.0,-999.0,80,-99.99,,,-99.99,,2013-01-03 04:32:00,
2013-01-02 22:33:00,0.0,-5.0,-100.00,North,-999,-999.0,-999.0,80,-99.99,,,-99.99,,2013-01-03 05:33:00,
2013-01-02 23:33:00,-4.0,-8.0,-100.00,North,-999,-999.0,-999.0,82,-99.99,,,-99.99,,2013-01-03 06:33:00,